createdAt,value
2023-05-12T04:49:12.436Z,15.0125
2023-05-12T04:50:13.886Z,2.9807
2023-05-12T04:51:15.405Z,1.7008
2023-05-12T04:52:16.922Z,1.6234
2023-05-12T04:53:18.463Z,0.8240
2023-05-12T04:54:19.940Z,1.5810
2023-05-12T04:55:21.756Z,1.1575
2023-05-12T04:56:23.017Z,0.6199
2023-05-12T04:57:24.506Z,1.5433
2023-05-12T04:58:26.046Z,2.4260
2023-05-12T04:59:27.620Z,1.6041
2023-05-12T05:00:29.057Z,1.7673
2023-05-12T05:01:30.683Z,1.0005
2023-05-12T05:02:32.194Z,1.5232
2023-05-12T05:03:33.641Z,1.4029
2023-05-12T05:04:35.158Z,0.9098
2023-05-12T05:05:36.642Z,0.6743
2023-05-12T05:06:38.190Z,0.9649
2023-05-12T05:07:39.672Z,1.0344
2023-05-12T05:08:41.193Z,0.7612
2023-05-12T05:09:42.715Z,1.5391
2023-05-12T05:10:44.266Z,1.2953
2023-05-12T05:11:45.781Z,1.1499
2023-05-12T05:12:47.336Z,0.7868
2023-05-12T05:13:48.821Z,1.0034
2023-05-12T05:14:50.311Z,1.9347
2023-05-12T05:15:51.877Z,1.2117
2023-05-12T05:16:53.362Z,0.7305
2023-05-12T05:17:54.887Z,1.0025
2023-05-12T05:18:58.154Z,0.8323
2023-05-12T05:19:59.586Z,1.0281
2023-05-12T05:20:59.486Z,0.5190
2023-05-12T05:22:00.926Z,0.6460
2023-05-12T05:23:02.504Z,1.2715
2023-05-12T05:24:03.988Z,0.8017
2023-05-12T05:25:05.526Z,0.8152
2023-05-12T05:26:07.029Z,1.0685
2023-05-12T05:27:08.537Z,0.9026
2023-05-12T05:28:10.057Z,1.8929
2023-05-12T05:29:11.569Z,2.8586
2023-05-12T05:30:13.100Z,1.3305
2023-05-12T05:31:14.635Z,0.5779
2023-05-12T05:32:16.141Z,0.6898
2023-05-12T05:33:17.651Z,1.0071
2023-05-12T05:34:19.220Z,2.4737
2023-05-12T05:35:21.066Z,0.9385
2023-05-12T05:36:22.234Z,0.6457
2023-05-12T05:37:23.764Z,1.2297
2023-05-12T05:38:25.275Z,1.1045
2023-05-12T05:39:26.834Z,0.5747
2023-05-12T05:40:30.568Z,1.1849
2023-05-12T05:41:30.548Z,1.0290
2023-05-12T05:42:31.358Z,1.6845
2023-05-12T05:43:32.873Z,1.0976
2023-05-12T05:44:36.096Z,1.1886
2023-05-12T05:45:35.932Z,1.0970
2023-05-12T05:46:37.531Z,0.9122
2023-05-12T05:47:39.053Z,1.2469
2023-05-12T05:48:40.504Z,0.8561
2023-05-12T05:49:41.981Z,0.8287
2023-05-12T05:50:43.501Z,1.2057
2023-05-12T05:51:45.035Z,0.7238
2023-05-12T05:52:46.564Z,0.8370
2023-05-12T05:53:48.106Z,0.4002
2023-05-12T05:54:49.574Z,1.3877
2023-05-12T05:55:51.094Z,1.0916
2023-05-12T05:56:52.626Z,0.8215
2023-05-12T05:57:54.125Z,1.3285
2023-05-12T05:58:55.663Z,1.1963
2023-05-12T05:59:57.217Z,0.6157
2023-05-12T06:00:58.706Z,0.4975
2023-05-12T06:02:00.338Z,1.0528
2023-05-12T06:03:01.816Z,1.7563
2023-05-12T06:04:03.407Z,1.7127
2023-05-12T06:05:04.786Z,1.4309
2023-05-12T06:06:06.299Z,2.6328
2023-05-12T06:07:07.810Z,1.8608
2023-05-12T06:08:09.316Z,1.4305
2023-05-12T06:09:10.850Z,1.5541
2023-05-12T06:10:12.384Z,2.2819
2023-05-12T06:11:15.301Z,2.5726
2023-05-12T06:12:15.901Z,3.3411
2023-05-12T06:13:17.307Z,1.8792
2023-05-12T06:14:18.428Z,2.5478
2023-05-12T06:15:20.110Z,2.8876
2023-05-12T06:16:21.478Z,2.1854
2023-05-12T06:17:23.028Z,2.8315
2023-05-12T06:18:24.559Z,2.4239
2023-05-12T06:19:26.042Z,2.2217
2023-05-12T06:20:27.561Z,2.4762
2023-05-12T06:21:29.079Z,2.3428
2023-05-12T06:22:30.577Z,2.5177
2023-05-12T06:23:32.106Z,3.3607
2023-05-12T06:24:33.624Z,1.8967
2023-05-12T06:25:35.147Z,2.8688
2023-05-12T06:26:36.671Z,1.9755
2023-05-12T06:27:38.153Z,1.8894
2023-05-12T06:28:39.667Z,2.2614
2023-05-12T06:29:41.211Z,3.5246
2023-05-12T06:30:42.735Z,2.9817
2023-05-12T06:31:44.274Z,2.3879
2023-05-12T06:32:45.866Z,4.6468
2023-05-12T06:33:47.295Z,3.2233
2023-05-12T06:34:48.771Z,3.5071
2023-05-12T06:35:50.319Z,4.0421
2023-05-12T06:36:53.750Z,2.8183
2023-05-12T06:37:53.366Z,3.3713
2023-05-12T06:38:54.887Z,4.4778
2023-05-12T06:39:56.384Z,3.6450
2023-05-12T06:40:57.883Z,7.1113
2023-05-12T06:42:00.239Z,5.8311
2023-05-12T06:43:00.920Z,5.1058
2023-05-12T06:44:02.485Z,5.8872
2023-05-12T06:45:03.952Z,5.7967
2023-05-12T06:46:05.505Z,6.2301
2023-05-12T06:47:06.998Z,5.2746
2023-05-12T06:48:08.569Z,4.6484
2023-05-12T06:49:10.003Z,4.8976
2023-05-12T06:50:11.535Z,5.8335
2023-05-12T06:51:13.046Z,7.4642
2023-05-12T06:52:14.555Z,6.1606
2023-05-12T06:53:16.085Z,4.9949
2023-05-12T06:54:17.600Z,5.6118
2023-05-12T06:55:19.330Z,6.7759
2023-05-12T06:56:20.640Z,6.9115
2023-05-12T06:57:22.135Z,8.8052
2023-05-12T06:58:23.676Z,5.7691
2023-05-12T06:59:25.226Z,6.0702
2023-05-12T07:00:26.719Z,7.9405
2023-05-12T07:01:28.254Z,7.8118
2023-05-12T07:02:29.769Z,6.3781
2023-05-12T07:03:31.278Z,8.3420
2023-05-12T07:04:32.744Z,8.2027
2023-05-12T07:05:34.316Z,6.6619
2023-05-12T07:06:35.803Z,7.7853
2023-05-12T07:07:37.315Z,5.8510
2023-05-12T07:08:38.822Z,6.8654
2023-05-12T07:09:40.339Z,5.4187
2023-05-12T07:10:41.851Z,7.5493
2023-05-12T07:11:43.457Z,7.1407
2023-05-12T07:12:44.901Z,7.7878
2023-05-12T07:13:46.389Z,7.5583
2023-05-12T07:14:47.902Z,6.5955
2023-05-12T07:15:49.464Z,7.1726
2023-05-12T07:16:50.951Z,6.9312
2023-05-12T07:17:52.488Z,8.0192
2023-05-12T07:18:54.040Z,6.4004
2023-05-12T07:19:55.482Z,6.1091
2023-05-12T07:20:57.024Z,6.2776
2023-05-12T07:21:58.520Z,6.9980
2023-05-12T07:23:00.056Z,5.4909
2023-05-12T07:24:01.539Z,7.1617
2023-05-12T07:25:03.096Z,6.6162
2023-05-12T07:26:04.599Z,8.5028
2023-05-12T07:27:06.095Z,8.2832
2023-05-12T07:28:07.648Z,8.2567
2023-05-12T07:29:09.751Z,7.0159
2023-05-12T07:30:10.632Z,6.2517
2023-05-12T07:31:12.188Z,7.8983
2023-05-12T07:32:13.656Z,9.9198
2023-05-12T07:33:15.203Z,9.2398
2023-05-12T07:34:16.708Z,5.8971
2023-05-12T07:35:18.426Z,6.9887
2023-05-12T07:36:21.870Z,6.7049
2023-05-12T07:37:21.242Z,4.3170
2023-05-12T07:38:22.768Z,4.9823
2023-05-12T07:39:24.287Z,5.3708
2023-05-12T07:40:25.894Z,6.6521
2023-05-12T07:41:27.354Z,6.3479
2023-05-12T07:42:28.866Z,7.2423
2023-05-12T07:43:30.352Z,6.2901
2023-05-12T07:44:31.871Z,6.5756
2023-05-12T07:45:33.384Z,6.1942
2023-05-12T07:46:34.948Z,5.0598
2023-05-12T07:47:36.509Z,5.1570
2023-05-12T07:48:37.937Z,5.4598
2023-05-12T07:49:39.452Z,5.2576
2023-05-12T07:50:40.946Z,4.3060
2023-05-12T07:51:42.476Z,4.5789
2023-05-12T07:52:44.009Z,4.4139
2023-05-12T07:53:45.520Z,5.4221
2023-05-12T07:54:47.015Z,4.6355
2023-05-12T07:55:48.516Z,4.5526
2023-05-12T07:56:50.041Z,4.6878
2023-05-12T07:57:51.577Z,3.4734
2023-05-12T07:58:53.119Z,3.7051
2023-05-12T07:59:54.605Z,3.6694
2023-05-12T08:00:56.094Z,3.8272
2023-05-12T08:01:57.694Z,4.8561
2023-05-12T08:02:59.353Z,2.9171
2023-05-12T08:04:00.794Z,2.6758
2023-05-12T08:05:02.194Z,4.5682
2023-05-12T08:06:03.689Z,2.9112
2023-05-12T08:07:05.220Z,2.5452
2023-05-12T08:08:06.706Z,3.7037
2023-05-12T08:09:08.261Z,4.1194
2023-05-12T08:10:09.765Z,4.3837
2023-05-12T08:11:12.086Z,3.4069
2023-05-12T08:12:12.778Z,3.4913
2023-05-12T08:13:14.299Z,2.7777
2023-05-12T08:14:15.806Z,3.8398
2023-05-12T08:15:17.337Z,3.8198
2023-05-12T08:16:18.897Z,3.5597
2023-05-12T08:17:20.445Z,3.3626
2023-05-12T08:18:21.929Z,3.3324
2023-05-12T08:19:23.376Z,3.6761
2023-05-12T08:20:24.919Z,2.9602
2023-05-12T08:21:26.418Z,4.4348
2023-05-12T08:22:27.942Z,3.8165
2023-05-12T08:23:29.473Z,4.8970
2023-05-12T08:24:30.959Z,5.0551
2023-05-12T08:25:32.477Z,5.1578
2023-05-12T08:26:34.024Z,3.6739
2023-05-12T08:27:35.539Z,3.2843
2023-05-12T08:28:37.054Z,4.0914
2023-05-12T08:29:38.537Z,3.9177
2023-05-12T08:30:40.108Z,2.8119
2023-05-12T08:31:41.640Z,4.9463
2023-05-12T08:32:43.134Z,2.5562
2023-05-12T08:33:44.631Z,2.9956
2023-05-12T08:34:46.136Z,1.9509
2023-05-12T08:35:47.629Z,3.2231
2023-05-12T08:36:49.141Z,3.0389
2023-05-12T08:37:50.691Z,3.1101
2023-05-12T08:38:52.215Z,3.0548
2023-05-12T08:39:53.803Z,3.8553
2023-05-12T08:40:55.224Z,3.4890
2023-05-12T08:41:56.740Z,2.9074
2023-05-12T08:42:59.835Z,3.3966
2023-05-12T08:44:00.600Z,3.3458
2023-05-12T08:45:01.340Z,3.1210
2023-05-12T08:46:02.822Z,4.0520
2023-05-12T08:47:04.334Z,3.2367
2023-05-12T08:48:05.876Z,2.7692
2023-05-12T08:49:07.385Z,3.1924
2023-05-12T08:50:08.952Z,2.4356
2023-05-12T08:51:10.493Z,3.4126
2023-05-12T08:52:12.008Z,2.1931
2023-05-12T08:53:13.538Z,2.4437
2023-05-12T08:54:15.058Z,2.8146
2023-05-12T08:55:16.573Z,4.1203
2023-05-12T08:57:19.730Z,3.4549
2023-05-12T08:58:27.813Z,2.4446
2023-05-12T08:59:22.666Z,2.6996
2023-05-12T09:00:24.285Z,2.3887
2023-05-12T09:01:25.717Z,3.7257
2023-05-12T09:02:29.406Z,2.7981
2023-05-12T09:03:27.237Z,2.6338
2023-05-12T09:04:28.570Z,2.3800
2023-05-12T09:05:29.733Z,2.9005
2023-05-12T09:06:31.184Z,2.6930
2023-05-12T09:07:32.223Z,3.4137
2023-05-12T09:08:33.516Z,2.9938
2023-05-12T09:09:34.747Z,3.9867
2023-05-12T09:10:36.165Z,2.1944
2023-05-12T09:11:37.221Z,3.9032
2023-05-12T09:12:38.489Z,2.9198
2023-05-12T09:13:39.715Z,2.2826
2023-05-12T09:14:40.999Z,1.4644
2023-05-12T09:15:42.263Z,1.7887
2023-05-12T09:16:43.803Z,3.1392
2023-05-12T09:17:45.312Z,1.9725
2023-05-12T09:18:46.836Z,2.2801
2023-05-12T09:19:48.352Z,2.9278
2023-05-12T09:20:49.884Z,2.1695
2023-05-12T09:21:51.399Z,3.1787
2023-05-12T09:22:52.909Z,3.3234
2023-05-12T09:23:54.415Z,2.6600
2023-05-12T09:24:56.019Z,2.9704
2023-05-12T09:25:57.472Z,2.5491
2023-05-12T09:26:59.013Z,2.2779
2023-05-12T09:28:00.512Z,1.1599
2023-05-12T09:29:02.016Z,2.9185
2023-05-12T09:30:03.562Z,2.1888
2023-05-12T09:31:05.083Z,2.1766
2023-05-12T09:32:06.727Z,3.1806
2023-05-12T09:33:08.213Z,1.7568
2023-05-12T09:34:09.618Z,1.8620
2023-05-12T09:35:11.243Z,1.9532
2023-05-12T09:36:12.660Z,1.6124
2023-05-12T09:37:15.433Z,2.0865
2023-05-12T09:38:15.739Z,1.7825
2023-05-12T09:39:17.237Z,1.6446
2023-05-12T09:40:18.758Z,1.1575
2023-05-12T09:41:20.272Z,2.0275
2023-05-12T09:42:21.786Z,1.8105
2023-05-12T09:43:23.305Z,2.2245
2023-05-12T09:44:24.825Z,1.1434
2023-05-12T09:45:26.327Z,1.6158
2023-05-12T09:46:27.870Z,0.9740
2023-05-12T09:47:29.411Z,2.3834
2023-05-12T09:48:30.898Z,1.6589
2023-05-12T09:49:32.397Z,1.7389
2023-05-12T09:50:44.354Z,1.8029
2023-05-12T09:51:35.420Z,1.0059
2023-05-12T09:52:36.966Z,1.3111
2023-05-12T09:53:38.481Z,1.4549
2023-05-12T09:54:39.984Z,0.8416
2023-05-12T09:55:41.508Z,0.9674
2023-05-12T09:56:43.023Z,2.0064
2023-05-12T09:57:44.579Z,1.1822
2023-05-12T09:58:46.079Z,0.8235
2023-05-12T09:59:47.598Z,0.7497
2023-05-12T10:01:50.679Z,1.1367
2023-05-12T10:02:52.204Z,1.1939
2023-05-12T10:03:53.656Z,1.5976
2023-05-12T10:04:55.217Z,1.5641
2023-05-12T10:05:56.838Z,0.9898
2023-05-12T10:06:58.278Z,1.0034
2023-05-12T10:07:59.764Z,2.4820
2023-05-12T10:09:01.353Z,1.3447
2023-05-12T10:10:02.902Z,0.8837
2023-05-12T10:11:04.399Z,1.1092
2023-05-12T10:12:05.928Z,1.5107
2023-05-12T10:13:07.458Z,0.6570
2023-05-12T10:14:08.940Z,0.7470
2023-05-12T10:15:10.482Z,1.5888
2023-05-12T10:16:11.987Z,1.2019
2023-05-12T10:17:13.550Z,0.9325
2023-05-12T10:18:15.081Z,0.3625
2023-05-12T10:19:16.572Z,1.7895
2023-05-12T10:20:18.064Z,0.8483
2023-05-12T10:21:19.583Z,1.4773
2023-05-12T10:22:21.116Z,1.0056
2023-05-12T10:23:22.662Z,0.8834
2023-05-12T10:24:24.187Z,1.1326
2023-05-12T10:25:25.667Z,0.7574
2023-05-12T10:26:27.251Z,0.6746
2023-05-12T10:27:28.773Z,1.1298
2023-05-12T10:28:30.310Z,0.8035
2023-05-12T10:29:31.867Z,0.9455
2023-05-12T10:30:33.356Z,1.4430
2023-05-12T10:31:34.860Z,0.6341
2023-05-12T10:32:36.456Z,1.5620
2023-05-12T10:33:37.916Z,0.9939
2023-05-12T10:34:39.423Z,0.6295
2023-05-12T10:35:40.954Z,0.4742
2023-05-12T10:36:42.493Z,0.6158
2023-05-12T10:37:44.034Z,0.4290
2023-05-12T10:38:45.539Z,0.7773
2023-05-12T10:39:47.066Z,0.5856
2023-05-12T10:40:48.566Z,1.1062
2023-05-12T10:41:51.122Z,0.7961
2023-05-12T10:42:51.695Z,0.6305
2023-05-12T10:43:53.150Z,0.7171
2023-05-12T10:44:54.686Z,1.1213
2023-05-12T10:45:56.297Z,0.5492
2023-05-12T10:46:57.728Z,1.0657
2023-05-12T10:47:59.320Z,1.1805
2023-05-12T10:49:00.777Z,0.8784
2023-05-12T10:50:02.279Z,0.8728
2023-05-12T10:51:03.787Z,0.9903
2023-05-12T10:52:05.349Z,1.0861
2023-05-12T10:53:08.130Z,0.5602
2023-05-12T10:54:08.370Z,1.2781
2023-05-12T10:55:09.961Z,0.8883
2023-05-12T10:56:11.550Z,1.2821
2023-05-12T10:57:14.994Z,1.1357
2023-05-12T10:58:15.520Z,0.9937
2023-05-12T10:59:16.573Z,1.3457
2023-05-12T11:00:17.893Z,1.3304
2023-05-12T11:01:19.457Z,0.9344
2023-05-12T11:02:20.997Z,0.9574
2023-05-12T11:03:23.355Z,2.7488
2023-05-12T11:04:23.750Z,1.3636
2023-05-12T11:05:25.435Z,0.9412
2023-05-12T11:06:27.149Z,1.6493
2023-05-12T11:07:28.424Z,1.2289
2023-05-12T11:08:30.524Z,1.6283
2023-05-12T11:09:31.318Z,1.3755
2023-05-12T11:10:33.798Z,1.1127
2023-05-12T11:11:34.409Z,0.8204
2023-05-12T11:12:35.890Z,1.5246
2023-05-12T11:13:37.306Z,1.1666
2023-05-12T11:14:38.801Z,1.1049
2023-05-12T11:15:40.336Z,0.8686
2023-05-12T11:16:42.016Z,1.3666
2023-05-12T11:17:43.396Z,1.3855
2023-05-12T11:18:44.914Z,0.9120
2023-05-12T11:19:46.426Z,1.2395
2023-05-12T11:20:47.936Z,1.2700
2023-05-12T11:21:49.435Z,1.8381
2023-05-12T11:22:50.976Z,2.0172
2023-05-12T11:23:52.494Z,2.5160
2023-05-12T11:24:54.110Z,1.9727
2023-05-12T11:25:55.576Z,2.5970
2023-05-12T11:26:57.041Z,1.6641
2023-05-12T11:27:58.557Z,2.1647
2023-05-12T11:29:00.131Z,3.4632
2023-05-12T11:30:01.616Z,2.6884
2023-05-12T11:31:03.198Z,2.3531
2023-05-12T11:32:04.691Z,4.1738
2023-05-12T11:33:06.232Z,4.6388
2023-05-12T11:34:12.500Z,4.9375
2023-05-12T11:35:09.338Z,6.3148
2023-05-12T11:36:10.748Z,5.8358
2023-05-12T11:37:12.272Z,3.1577
2023-05-12T11:38:13.755Z,5.4373
2023-05-12T11:39:15.271Z,6.6531
2023-05-12T11:40:16.793Z,8.6569
2023-05-12T11:41:18.344Z,6.1044
2023-05-12T11:42:21.567Z,4.8781
2023-05-12T11:43:21.386Z,3.7830
2023-05-12T11:44:22.894Z,3.3684
2023-05-12T11:45:24.435Z,3.5584
2023-05-12T11:46:25.992Z,3.9352
2023-05-12T11:47:27.479Z,4.0947
2023-05-12T11:48:28.994Z,4.2132
2023-05-12T11:49:30.543Z,5.4637
2023-05-12T11:50:32.014Z,5.2385
2023-05-12T11:51:33.573Z,5.4645
2023-05-12T11:52:35.085Z,5.7947
2023-05-12T11:53:36.583Z,4.6810
2023-05-12T11:54:38.150Z,7.0253
2023-05-12T11:55:39.654Z,4.9782
2023-05-12T11:56:41.150Z,6.3862
2023-05-12T11:57:42.669Z,6.3927
2023-05-12T11:58:44.208Z,6.4691
2023-05-12T11:59:45.721Z,5.6066
2023-05-12T12:00:47.253Z,6.6457
2023-05-12T12:01:48.797Z,5.7502
2023-05-12T12:02:50.358Z,5.4808
2023-05-12T12:03:51.843Z,6.6783
2023-05-12T12:04:53.401Z,8.4741
2023-05-12T12:05:54.875Z,5.2372
2023-05-12T12:06:56.425Z,5.0113
2023-05-12T12:07:57.890Z,7.3749
2023-05-12T12:08:59.408Z,5.8356
2023-05-12T12:10:00.990Z,4.1599
2023-05-12T12:11:03.846Z,5.6701
2023-05-12T12:12:03.979Z,6.1136
2023-05-12T12:13:05.535Z,5.6275
2023-05-12T12:14:07.012Z,4.2419
2023-05-12T12:15:08.533Z,5.4762
2023-05-12T12:16:10.436Z,7.9542
2023-05-12T12:17:11.636Z,6.2047
2023-05-12T12:18:13.153Z,7.3340
2023-05-12T12:19:14.666Z,6.5932
2023-05-12T12:20:16.117Z,4.6377
2023-05-12T12:21:18.932Z,5.9397
2023-05-12T12:22:19.180Z,5.4523
2023-05-12T12:23:20.720Z,5.0285
2023-05-12T12:24:22.192Z,6.7515
2023-05-12T12:25:23.711Z,5.0024
2023-05-12T12:26:25.273Z,5.6626
2023-05-12T12:27:26.773Z,5.7680
2023-05-12T12:28:28.272Z,3.5092
2023-05-12T12:29:29.836Z,5.1990
2023-05-12T12:30:31.494Z,3.8108
2023-05-12T12:31:32.847Z,4.0840
2023-05-12T12:32:34.388Z,4.2879
2023-05-12T12:33:35.934Z,4.3276
2023-05-12T12:34:37.388Z,5.5072
2023-05-12T12:35:38.916Z,3.5128
2023-05-12T12:36:40.443Z,3.6464
2023-05-12T12:37:41.953Z,3.9486
2023-05-12T12:38:43.475Z,3.2790
2023-05-12T12:39:45.682Z,4.0805
2023-05-12T12:40:46.558Z,2.7689
2023-05-12T12:41:48.705Z,2.6157
2023-05-12T12:42:49.577Z,2.7433
2023-05-12T12:43:51.097Z,3.0392
2023-05-12T12:44:52.594Z,3.3289
2023-05-12T12:45:54.128Z,4.8045
2023-05-12T12:46:55.726Z,2.6953
2023-05-12T12:47:57.194Z,3.6966
2023-05-12T12:48:58.690Z,2.8490
2023-05-12T12:50:00.223Z,3.9784
2023-05-12T12:51:01.720Z,2.8426
2023-05-12T12:52:03.260Z,3.3969
2023-05-12T12:53:04.765Z,2.1113
2023-05-12T12:54:06.264Z,3.4075
2023-05-12T12:55:07.767Z,2.1255
2023-05-12T12:56:09.309Z,2.6944
2023-05-12T12:57:10.820Z,2.3736
2023-05-12T12:58:12.321Z,3.5068
2023-05-12T12:59:13.920Z,2.1043
2023-05-12T13:00:15.365Z,3.3020
2023-05-12T13:01:16.919Z,2.0751
2023-05-12T13:02:18.451Z,3.1895
2023-05-12T13:03:20.555Z,2.3808
2023-05-12T13:04:21.436Z,2.3136
2023-05-12T13:05:23.256Z,1.9252
2023-05-12T13:06:24.497Z,3.8258
2023-05-12T13:07:25.997Z,2.6251
2023-05-12T13:08:27.505Z,2.8289
2023-05-12T13:09:29.059Z,2.2562
2023-05-12T13:10:30.560Z,1.4887
2023-05-12T13:11:32.065Z,1.2255
2023-05-12T13:12:33.630Z,1.9510
2023-05-12T13:13:35.110Z,1.8468
2023-05-12T13:14:36.629Z,2.3474
2023-05-12T13:15:38.192Z,1.8560
2023-05-12T13:16:39.704Z,1.4233
2023-05-12T13:17:41.194Z,1.6300
2023-05-12T13:18:42.782Z,1.9008
2023-05-12T13:19:44.208Z,1.8231
2023-05-12T13:20:45.755Z,1.5863
2023-05-12T13:21:47.282Z,2.9091
2023-05-12T13:22:48.793Z,1.4967
2023-05-12T13:23:50.290Z,2.8013
2023-05-12T13:24:51.842Z,1.9006
2023-05-12T13:25:53.349Z,2.4809
2023-05-12T13:26:54.907Z,2.1096
2023-05-12T13:27:56.397Z,1.3661
2023-05-12T13:28:57.903Z,1.3617
2023-05-12T13:29:59.447Z,1.8860
2023-05-12T13:31:01.013Z,1.7052
2023-05-12T13:32:02.464Z,1.2755
2023-05-12T13:33:05.895Z,3.1144
2023-05-12T13:34:05.525Z,2.0973
2023-05-12T13:35:07.017Z,1.7298
2023-05-12T13:36:08.565Z,2.0306
2023-05-12T13:37:10.499Z,1.8712
2023-05-12T13:38:11.727Z,2.6799
2023-05-12T13:39:13.154Z,2.1411
2023-05-12T13:40:14.638Z,2.4526
2023-05-12T13:41:16.195Z,1.8286
2023-05-12T13:42:17.694Z,3.7325
2023-05-12T13:43:19.205Z,2.6450
2023-05-12T13:44:20.737Z,2.0609
2023-05-12T13:45:22.520Z,1.7989
2023-05-12T13:46:23.812Z,1.6750
2023-05-12T13:47:25.295Z,1.8401
2023-05-12T13:48:26.808Z,1.9150
2023-05-12T13:49:28.365Z,2.7226
2023-05-12T13:50:31.395Z,1.6505
2023-05-12T13:51:32.700Z,1.8126
2023-05-12T13:52:33.912Z,2.0801
2023-05-12T13:53:35.178Z,1.8519
2023-05-12T13:54:36.384Z,2.1933
2023-05-12T13:55:39.974Z,2.0319
2023-05-12T13:56:39.024Z,2.5329
2023-05-12T13:57:40.554Z,3.7541
2023-05-12T13:58:42.064Z,2.9055
2023-05-12T13:59:43.560Z,2.8515
2023-05-12T14:00:45.111Z,2.1948
2023-05-12T14:01:46.741Z,2.2523
2023-05-12T14:02:48.170Z,3.6149
2023-05-12T14:03:49.684Z,2.2666
2023-05-12T14:04:51.227Z,2.5637
2023-05-12T14:05:52.697Z,2.5440
2023-05-12T14:06:54.221Z,3.1187
2023-05-12T14:07:55.786Z,2.1517
2023-05-12T14:08:57.277Z,2.3041
2023-05-12T14:09:58.824Z,1.3196
2023-05-12T14:11:00.314Z,1.8904
2023-05-12T14:12:01.861Z,1.8009
2023-05-12T14:13:03.379Z,1.4847
2023-05-12T14:14:04.924Z,1.5156
2023-05-12T14:15:23.587Z,2.3441
2023-05-12T14:16:08.006Z,1.3013
2023-05-12T14:17:09.450Z,3.2660
2023-05-12T14:18:10.973Z,2.4868
2023-05-12T14:19:12.537Z,3.3702
2023-05-12T14:20:14.024Z,2.0362
2023-05-12T14:21:15.529Z,1.5284
2023-05-12T14:22:25.648Z,1.4747
2023-05-12T14:23:20.811Z,1.4736
2023-05-12T14:24:22.080Z,3.0738
2023-05-12T14:25:23.436Z,1.4181
2023-05-12T14:26:24.544Z,1.2858
2023-05-12T14:27:25.810Z,2.0671
2023-05-12T14:28:27.099Z,0.9344
2023-05-12T14:29:28.288Z,1.9872
2023-05-12T14:30:29.601Z,0.9536
2023-05-12T14:31:30.869Z,1.4004
2023-05-12T14:32:32.357Z,1.1290
